Archival Weather

Chicago O'Hare International

Chicago, Illinois (KORD)

Report from: Wednesday, February 16, 2022 3:51 PM CST
Current time: Saturday, February 4, 2023 11:07 PM CST

Current weather
Weather history
Weather forecast

Present weatherLight rain
Temperature11.7°C (53.1°F)
Dew point7.8°C (46.0°F)
Winds 13 kts (6.7 m/s, 15 mph) South-Southwest (210°)
Wind gusts 22 kts (11.3 m/s, 25.3 mph)
Peak wind 29 kts (14.9 m/s, 33.4 mph) South-Southwest (210°) at 15:06
Visibility10 mi. (16.1 km)
Clouds Few clouds 2,000 ft. (610 m)
Ceiling: Broken clouds 4,200 ft. (1,280 m)
Overcast 8,000 ft. (2,438 m)
Altimeter29.77 in.Hg (1008 mB)
PrecipitiationTrace
Precip. events Rain began 3:11 PM
Relative humidity77 %
Density altitude-67 ft. (-20 m)
Sea-level pressure100.8 kPa (1008 mB, 29.77 in.Hg)
Remarks Automated weather observing station with precipitation discriminator
Flight conditions Visual Meteorological Conditions
Raw dataKORD 162151Z 21013G22KT 10SM -RA FEW020 BKN042 OVC080 12/08 A2977 RMK AO2 PK WND 21029/2106 RAB11 SLP080 P0000 T01170078
An unhandled exception has occurred. See browser dev tools for details. Reload 🗙